sensor_id;sensor_type;location;lat;lon;timestamp;temperature;humidity
14473;DHT22;7322;50.872;4.386;2022-10-22T00:01:11;16.60;1.00
14473;DHT22;7322;50.872;4.386;2022-10-22T00:03:38;16.70;99.90
14473;DHT22;7322;50.872;4.386;2022-10-22T00:06:05;16.70;16.50
14473;DHT22;7322;50.872;4.386;2022-10-22T00:08:32;16.70;1.00
14473;DHT22;7322;50.872;4.386;2022-10-22T00:11:07;16.70;1.00
14473;DHT22;7322;50.872;4.386;2022-10-22T00:13:34;16.70;99.90
14473;DHT22;7322;50.872;4.386;2022-10-22T00:16:01;16.70;99.90
14473;DHT22;7322;50.872;4.386;2022-10-22T00:18:28;16.70;99.90
14473;DHT22;7322;50.872;4.386;2022-10-22T00:20:54;16.80;99.90
14473;DHT22;7322;50.872;4.386;2022-10-22T00:23:21;16.80;1.00
14473;DHT22;7322;50.872;4.386;2022-10-22T00:25:48;16.80;1.00
14473;DHT22;7322;50.872;4.386;2022-10-22T00:28:18;16.80;1.00
14473;DHT22;7322;50.872;4.386;2022-10-22T00:30:45;16.80;1.00
14473;DHT22;7322;50.872;4.386;2022-10-22T00:33:12;16.60;1.00
14473;DHT22;7322;50.872;4.386;2022-10-22T00:35:39;16.70;99.90
14473;DHT22;7322;50.872;4.386;2022-10-22T00:38:06;16.70;99.90
14473;DHT22;7322;50.872;4.386;2022-10-22T00:40:33;16.60;99.90
14473;DHT22;7322;50.872;4.386;2022-10-22T00:43:00;16.50;1.00
14473;DHT22;7322;50.872;4.386;2022-10-22T00:45:29;16.50;99.90
14473;DHT22;7322;50.872;4.386;2022-10-22T00:48:00;16.50;99.90
14473;DHT22;7322;50.872;4.386;2022-10-22T00:50:31;16.50;1.00
14473;DHT22;7322;50.872;4.386;2022-10-22T00:53:00;16.50;1.00
14473;DHT22;7322;50.872;4.386;2022-10-22T00:55:28;16.50;1.00
14473;DHT22;7322;50.872;4.386;2022-10-22T00:57:57;16.50;1.00
14473;DHT22;7322;50.872;4.386;2022-10-22T01:00:24;16.40;99.90
14473;DHT22;7322;50.872;4.386;2022-10-22T01:02:53;16.40;1.00
14473;DHT22;7322;50.872;4.386;2022-10-22T01:05:20;16.50;99.90
14473;DHT22;7322;50.872;4.386;2022-10-22T01:07:50;16.50;1.00
14473;DHT22;7322;50.872;4.386;2022-10-22T01:10:36;16.40;1.00
14473;DHT22;7322;50.872;4.386;2022-10-22T01:13:16;16.40;1.00
14473;DHT22;7322;50.872;4.386;2022-10-22T01:15:54;16.50;1.00
14473;DHT22;7322;50.872;4.386;2022-10-22T01:18:31;16.50;1.00
14473;DHT22;7322;50.872;4.386;2022-10-22T01:21:17;16.40;1.00
14473;DHT22;7322;50.872;4.386;2022-10-22T01:27:01;16.40;91.80
14473;DHT22;7322;50.872;4.386;2022-10-22T01:29:33;16.40;1.00
14473;DHT22;7322;50.872;4.386;2022-10-22T01:32:07;16.40;1.00
14473;DHT22;7322;50.872;4.386;2022-10-22T01:34:37;16.30;1.00
14473;DHT22;7322;50.872;4.386;2022-10-22T01:37:06;16.30;1.00
14473;DHT22;7322;50.872;4.386;2022-10-22T01:39:35;16.40;1.00
14473;DHT22;7322;50.872;4.386;2022-10-22T01:42:03;16.40;99.90
14473;DHT22;7322;50.872;4.386;2022-10-22T01:44:33;16.40;1.00
14473;DHT22;7322;50.872;4.386;2022-10-22T01:47:11;16.50;1.00
14473;DHT22;7322;50.872;4.386;2022-10-22T01:50:01;16.50;99.90
14473;DHT22;7322;50.872;4.386;2022-10-22T01:52:37;16.50;99.90
14473;DHT22;7322;50.872;4.386;2022-10-22T01:55:16;16.50;99.90
14473;DHT22;7322;50.872;4.386;2022-10-22T01:57:51;16.40;99.90
14473;DHT22;7322;50.872;4.386;2022-10-22T02:00:20;16.40;99.90
14473;DHT22;7322;50.872;4.386;2022-10-22T02:02:53;16.40;99.90
14473;DHT22;7322;50.872;4.386;2022-10-22T02:05:26;16.40;99.90
14473;DHT22;7322;50.872;4.386;2022-10-22T02:07:58;16.30;1.00
14473;DHT22;7322;50.872;4.386;2022-10-22T02:10:28;16.30;59.90
14473;DHT22;7322;50.872;4.386;2022-10-22T02:12:57;16.30;52.80
14473;DHT22;7322;50.872;4.386;2022-10-22T02:15:28;16.20;1.00
14473;DHT22;7322;50.872;4.386;2022-10-22T02:17:57;16.20;99.90
14473;DHT22;7322;50.872;4.386;2022-10-22T02:20:28;16.20;1.00
14473;DHT22;7322;50.872;4.386;2022-10-22T02:22:56;16.30;99.90
14473;DHT22;7322;50.872;4.386;2022-10-22T02:25:29;16.30;99.90
14473;DHT22;7322;50.872;4.386;2022-10-22T02:28:03;16.20;99.90
14473;DHT22;7322;50.872;4.386;2022-10-22T02:30:33;16.20;99.90
14473;DHT22;7322;50.872;4.386;2022-10-22T02:33:06;16.20;99.90
14473;DHT22;7322;50.872;4.386;2022-10-22T02:35:42;16.20;99.90
14473;DHT22;7322;50.872;4.386;2022-10-22T02:38:12;16.10;3.30
14473;DHT22;7322;50.872;4.386;2022-10-22T02:40:39;16.10;99.90
14473;DHT22;7322;50.872;4.386;2022-10-22T02:43:08;16.10;99.90
14473;DHT22;7322;50.872;4.386;2022-10-22T02:45:36;16.20;1.00
14473;DHT22;7322;50.872;4.386;2022-10-22T02:48:04;16.20;1.00
14473;DHT22;7322;50.872;4.386;2022-10-22T02:50:33;16.30;99.90
14473;DHT22;7322;50.872;4.386;2022-10-22T02:53:05;16.20;99.90
14473;DHT22;7322;50.872;4.386;2022-10-22T02:55:33;16.20;99.90
14473;DHT22;7322;50.872;4.386;2022-10-22T02:57:59;16.20;1.00
14473;DHT22;7322;50.872;4.386;2022-10-22T03:00:27;16.20;1.00
14473;DHT22;7322;50.872;4.386;2022-10-22T03:02:56;16.20;1.00
14473;DHT22;7322;50.872;4.386;2022-10-22T03:05:23;16.10;1.00
14473;DHT22;7322;50.872;4.386;2022-10-22T03:07:50;16.10;1.00
14473;DHT22;7322;50.872;4.386;2022-10-22T03:10:17;16.20;1.00
14473;DHT22;7322;50.872;4.386;2022-10-22T03:12:44;16.30;99.90
14473;DHT22;7322;50.872;4.386;2022-10-22T03:15:11;16.30;1.00
14473;DHT22;7322;50.872;4.386;2022-10-22T03:17:40;16.20;99.90
14473;DHT22;7322;50.872;4.386;2022-10-22T03:20:09;16.20;30.10
14473;DHT22;7322;50.872;4.386;2022-10-22T03:22:38;16.20;99.90
14473;DHT22;7322;50.872;4.386;2022-10-22T03:25:09;16.20;99.90
14473;DHT22;7322;50.872;4.386;2022-10-22T03:27:38;16.10;99.90
14473;DHT22;7322;50.872;4.386;2022-10-22T03:30:07;16.20;99.90
14473;DHT22;7322;50.872;4.386;2022-10-22T03:32:34;16.10;99.90
14473;DHT22;7322;50.872;4.386;2022-10-22T03:35:02;16.10;99.90
14473;DHT22;7322;50.872;4.386;2022-10-22T03:37:33;16.10;1.00
14473;DHT22;7322;50.872;4.386;2022-10-22T03:40:00;16.20;99.90
14473;DHT22;7322;50.872;4.386;2022-10-22T03:42:27;16.20;99.90
14473;DHT22;7322;50.872;4.386;2022-10-22T03:44:54;16.20;20.10
14473;DHT22;7322;50.872;4.386;2022-10-22T03:47:21;16.20;1.00
14473;DHT22;7322;50.872;4.386;2022-10-22T03:49:49;16.20;1.00
14473;DHT22;7322;50.872;4.386;2022-10-22T03:52:16;16.30;1.00
14473;DHT22;7322;50.872;4.386;2022-10-22T03:54:44;16.40;99.90
14473;DHT22;7322;50.872;4.386;2022-10-22T03:57:11;16.20;1.00
14473;DHT22;7322;50.872;4.386;2022-10-22T03:59:39;16.30;1.00
14473;DHT22;7322;50.872;4.386;2022-10-22T04:02:07;16.30;1.00
14473;DHT22;7322;50.872;4.386;2022-10-22T04:04:35;16.20;1.00
14473;DHT22;7322;50.872;4.386;2022-10-22T04:07:03;16.20;1.00
14473;DHT22;7322;50.872;4.386;2022-10-22T04:09:30;16.30;99.90
14473;DHT22;7322;50.872;4.386;2022-10-22T04:12:00;16.30;99.90
14473;DHT22;7322;50.872;4.386;2022-10-22T04:14:27;16.30;99.90
14473;DHT22;7322;50.872;4.386;2022-10-22T04:16:54;16.20;99.90
14473;DHT22;7322;50.872;4.386;2022-10-22T04:19:22;16.30;99.90
14473;DHT22;7322;50.872;4.386;2022-10-22T04:21:49;16.20;99.90
14473;DHT22;7322;50.872;4.386;2022-10-22T04:24:16;16.30;99.90
14473;DHT22;7322;50.872;4.386;2022-10-22T04:26:43;16.20;99.90
14473;DHT22;7322;50.872;4.386;2022-10-22T04:29:12;16.30;99.90
14473;DHT22;7322;50.872;4.386;2022-10-22T04:31:39;16.20;99.90
14473;DHT22;7322;50.872;4.386;2022-10-22T04:34:12;16.20;99.90
14473;DHT22;7322;50.872;4.386;2022-10-22T04:36:40;16.20;99.90
14473;DHT22;7322;50.872;4.386;2022-10-22T04:39:07;16.20;99.90
14473;DHT22;7322;50.872;4.386;2022-10-22T04:41:36;16.10;99.90
14473;DHT22;7322;50.872;4.386;2022-10-22T04:44:04;16.10;99.90
14473;DHT22;7322;50.872;4.386;2022-10-22T04:46:34;16.00;1.00
14473;DHT22;7322;50.872;4.386;2022-10-22T04:49:03;16.10;1.00
14473;DHT22;7322;50.872;4.386;2022-10-22T04:51:32;16.00;99.90
14473;DHT22;7322;50.872;4.386;2022-10-22T04:53:59;16.20;99.90
14473;DHT22;7322;50.872;4.386;2022-10-22T04:56:28;16.20;99.90
14473;DHT22;7322;50.872;4.386;2022-10-22T04:58:57;16.10;99.90
14473;DHT22;7322;50.872;4.386;2022-10-22T05:01:26;16.10;99.90
14473;DHT22;7322;50.872;4.386;2022-10-22T05:03:59;16.10;1.00
14473;DHT22;7322;50.872;4.386;2022-10-22T05:06:27;16.20;1.00
14473;DHT22;7322;50.872;4.386;2022-10-22T05:08:57;16.20;99.90
14473;DHT22;7322;50.872;4.386;2022-10-22T05:11:26;16.30;99.90
14473;DHT22;7322;50.872;4.386;2022-10-22T05:13:54;16.20;80.80
14473;DHT22;7322;50.872;4.386;2022-10-22T05:16:22;16.30;41.70
14473;DHT22;7322;50.872;4.386;2022-10-22T05:18:49;16.30;58.50
14473;DHT22;7322;50.872;4.386;2022-10-22T05:21:19;16.30;99.90
14473;DHT22;7322;50.872;4.386;2022-10-22T05:23:53;16.20;69.60
14473;DHT22;7322;50.872;4.386;2022-10-22T05:26:21;16.30;63.40
14473;DHT22;7322;50.872;4.386;2022-10-22T05:28:50;16.30;1.00
14473;DHT22;7322;50.872;4.386;2022-10-22T05:31:18;16.30;1.00
14473;DHT22;7322;50.872;4.386;2022-10-22T05:33:45;16.30;1.00
14473;DHT22;7322;50.872;4.386;2022-10-22T05:36:33;16.30;1.00
14473;DHT22;7322;50.872;4.386;2022-10-22T05:42:07;16.30;1.00
14473;DHT22;7322;50.872;4.386;2022-10-22T05:45:06;16.40;1.00
14473;DHT22;7322;50.872;4.386;2022-10-22T05:51:03;16.50;1.00
14473;DHT22;7322;50.872;4.386;2022-10-22T05:53:42;16.40;1.00
14473;DHT22;7322;50.872;4.386;2022-10-22T05:56:11;16.40;1.00
14473;DHT22;7322;50.872;4.386;2022-10-22T05:58:39;16.40;1.00
14473;DHT22;7322;50.872;4.386;2022-10-22T06:01:19;16.40;1.00
14473;DHT22;7322;50.872;4.386;2022-10-22T06:03:53;16.30;1.00
14473;DHT22;7322;50.872;4.386;2022-10-22T06:06:26;16.30;99.90
14473;DHT22;7322;50.872;4.386;2022-10-22T06:09:05;16.30;1.00
14473;DHT22;7322;50.872;4.386;2022-10-22T06:12:07;16.40;1.00
14473;DHT22;7322;50.872;4.386;2022-10-22T06:15:16;16.40;1.00
14473;DHT22;7322;50.872;4.386;2022-10-22T06:18:18;16.30;16.90
14473;DHT22;7322;50.872;4.386;2022-10-22T06:20:48;16.30;96.70
14473;DHT22;7322;50.872;4.386;2022-10-22T06:23:40;16.30;99.90
14473;DHT22;7322;50.872;4.386;2022-10-22T06:30:03;16.20;99.90
14473;DHT22;7322;50.872;4.386;2022-10-22T06:39:30;16.30;85.50
14473;DHT22;7322;50.872;4.386;2022-10-22T06:45:00;16.20;99.90
14473;DHT22;7322;50.872;4.386;2022-10-22T06:47:28;16.30;99.90
14473;DHT22;7322;50.872;4.386;2022-10-22T06:49:58;16.20;99.90
14473;DHT22;7322;50.872;4.386;2022-10-22T06:52:25;16.30;99.90
14473;DHT22;7322;50.872;4.386;2022-10-22T06:54:52;16.30;99.90
14473;DHT22;7322;50.872;4.386;2022-10-22T06:57:18;16.30;99.90
14473;DHT22;7322;50.872;4.386;2022-10-22T06:59:45;16.40;12.30
14473;DHT22;7322;50.872;4.386;2022-10-22T07:02:12;16.40;1.00
14473;DHT22;7322;50.872;4.386;2022-10-22T07:04:40;16.30;1.00
14473;DHT22;7322;50.872;4.386;2022-10-22T07:07:07;16.30;1.00
14473;DHT22;7322;50.872;4.386;2022-10-22T07:09:34;16.50;1.00
14473;DHT22;7322;50.872;4.386;2022-10-22T07:12:01;16.50;1.00
14473;DHT22;7322;50.872;4.386;2022-10-22T07:14:28;16.50;1.00
14473;DHT22;7322;50.872;4.386;2022-10-22T07:16:55;16.50;1.00
14473;DHT22;7322;50.872;4.386;2022-10-22T07:19:23;16.50;1.00
14473;DHT22;7322;50.872;4.386;2022-10-22T07:21:51;16.50;1.00
14473;DHT22;7322;50.872;4.386;2022-10-22T07:24:18;16.50;1.00
14473;DHT22;7322;50.872;4.386;2022-10-22T07:26:46;16.60;1.00
14473;DHT22;7322;50.872;4.386;2022-10-22T07:29:13;16.60;1.00
14473;DHT22;7322;50.872;4.386;2022-10-22T07:31:41;16.60;1.00
14473;DHT22;7322;50.872;4.386;2022-10-22T07:34:08;16.60;1.00
14473;DHT22;7322;50.872;4.386;2022-10-22T07:36:35;16.60;1.00
14473;DHT22;7322;50.872;4.386;2022-10-22T07:39:04;16.60;1.00
14473;DHT22;7322;50.872;4.386;2022-10-22T07:41:31;16.60;1.00
14473;DHT22;7322;50.872;4.386;2022-10-22T07:43:58;16.70;1.00
14473;DHT22;7322;50.872;4.386;2022-10-22T07:46:25;16.70;99.90
14473;DHT22;7322;50.872;4.386;2022-10-22T07:48:52;16.70;99.90
14473;DHT22;7322;50.872;4.386;2022-10-22T07:51:19;16.70;99.90
14473;DHT22;7322;50.872;4.386;2022-10-22T07:53:46;16.70;99.90
14473;DHT22;7322;50.872;4.386;2022-10-22T07:56:14;16.80;99.90
14473;DHT22;7322;50.872;4.386;2022-10-22T07:58:42;16.90;99.90
14473;DHT22;7322;50.872;4.386;2022-10-22T08:01:08;16.90;99.90
14473;DHT22;7322;50.872;4.386;2022-10-22T08:03:35;16.90;99.90
14473;DHT22;7322;50.872;4.386;2022-10-22T08:06:02;16.80;99.90
14473;DHT22;7322;50.872;4.386;2022-10-22T08:08:29;16.90;99.90
14473;DHT22;7322;50.872;4.386;2022-10-22T08:10:59;17.00;90.30
14473;DHT22;7322;50.872;4.386;2022-10-22T08:13:29;17.10;1.00
14473;DHT22;7322;50.872;4.386;2022-10-22T08:16:05;17.20;1.00
14473;DHT22;7322;50.872;4.386;2022-10-22T08:18:41;17.20;1.00
14473;DHT22;7322;50.872;4.386;2022-10-22T08:21:11;17.10;1.00
14473;DHT22;7322;50.872;4.386;2022-10-22T08:23:52;17.10;1.00
14473;DHT22;7322;50.872;4.386;2022-10-22T08:26:19;17.20;1.00
14473;DHT22;7322;50.872;4.386;2022-10-22T08:28:47;17.10;1.00
14473;DHT22;7322;50.872;4.386;2022-10-22T08:31:15;17.10;1.00
14473;DHT22;7322;50.872;4.386;2022-10-22T08:33:43;17.10;99.90
14473;DHT22;7322;50.872;4.386;2022-10-22T08:36:11;17.00;99.90
14473;DHT22;7322;50.872;4.386;2022-10-22T08:38:38;17.20;26.60
14473;DHT22;7322;50.872;4.386;2022-10-22T08:41:11;17.20;1.00
14473;DHT22;7322;50.872;4.386;2022-10-22T08:46:53;17.30;21.10
14473;DHT22;7322;50.872;4.386;2022-10-22T08:49:27;17.30;1.00
14473;DHT22;7322;50.872;4.386;2022-10-22T08:51:55;17.30;1.00
14473;DHT22;7322;50.872;4.386;2022-10-22T08:54:31;17.20;1.00
14473;DHT22;7322;50.872;4.386;2022-10-22T08:57:10;17.20;20.10
14473;DHT22;7322;50.872;4.386;2022-10-22T08:59:46;17.20;99.90
14473;DHT22;7322;50.872;4.386;2022-10-22T09:02:26;17.40;99.90
14473;DHT22;7322;50.872;4.386;2022-10-22T09:05:02;17.30;1.00
14473;DHT22;7322;50.872;4.386;2022-10-22T09:07:31;17.40;1.00
14473;DHT22;7322;50.872;4.386;2022-10-22T09:09:59;17.40;1.00
14473;DHT22;7322;50.872;4.386;2022-10-22T09:12:27;17.60;1.00
14473;DHT22;7322;50.872;4.386;2022-10-22T09:14:55;17.60;1.00
14473;DHT22;7322;50.872;4.386;2022-10-22T09:17:31;17.50;99.90
14473;DHT22;7322;50.872;4.386;2022-10-22T09:20:08;17.40;1.00
14473;DHT22;7322;50.872;4.386;2022-10-22T09:22:43;17.40;1.00
14473;DHT22;7322;50.872;4.386;2022-10-22T09:25:19;17.20;65.70
14473;DHT22;7322;50.872;4.386;2022-10-22T09:27:47;17.00;99.90
14473;DHT22;7322;50.872;4.386;2022-10-22T09:30:17;16.90;1.00
14473;DHT22;7322;50.872;4.386;2022-10-22T09:32:44;16.90;1.00
14473;DHT22;7322;50.872;4.386;2022-10-22T09:35:13;16.90;1.00
14473;DHT22;7322;50.872;4.386;2022-10-22T09:37:50;16.80;99.90
14473;DHT22;7322;50.872;4.386;2022-10-22T09:40:18;16.70;99.90
14473;DHT22;7322;50.872;4.386;2022-10-22T09:42:45;16.70;99.90
14473;DHT22;7322;50.872;4.386;2022-10-22T09:45:18;16.60;1.00
14473;DHT22;7322;50.872;4.386;2022-10-22T09:47:46;16.70;14.10
14473;DHT22;7322;50.872;4.386;2022-10-22T09:50:19;16.70;99.90
14473;DHT22;7322;50.872;4.386;2022-10-22T09:52:57;16.80;99.90
14473;DHT22;7322;50.872;4.386;2022-10-22T09:55:25;16.80;1.00
14473;DHT22;7322;50.872;4.386;2022-10-22T09:57:53;16.80;1.00
14473;DHT22;7322;50.872;4.386;2022-10-22T10:00:22;16.80;1.00
14473;DHT22;7322;50.872;4.386;2022-10-22T10:02:54;16.90;1.00
14473;DHT22;7322;50.872;4.386;2022-10-22T10:05:25;17.10;99.90
14473;DHT22;7322;50.872;4.386;2022-10-22T10:07:53;17.20;99.90
14473;DHT22;7322;50.872;4.386;2022-10-22T10:10:29;17.30;99.90
14473;DHT22;7322;50.872;4.386;2022-10-22T10:13:04;17.40;1.00
14473;DHT22;7322;50.872;4.386;2022-10-22T10:15:39;17.50;1.00
14473;DHT22;7322;50.872;4.386;2022-10-22T10:18:20;17.50;1.00
14473;DHT22;7322;50.872;4.386;2022-10-22T10:20:54;17.70;1.00
14473;DHT22;7322;50.872;4.386;2022-10-22T10:23:27;17.80;1.00
14473;DHT22;7322;50.872;4.386;2022-10-22T10:26:01;17.80;1.00
14473;DHT22;7322;50.872;4.386;2022-10-22T10:28:44;17.80;1.00
14473;DHT22;7322;50.872;4.386;2022-10-22T10:31:19;18.00;1.00
14473;DHT22;7322;50.872;4.386;2022-10-22T10:33:55;18.10;1.00
14473;DHT22;7322;50.872;4.386;2022-10-22T10:36:31;18.10;1.00
14473;DHT22;7322;50.872;4.386;2022-10-22T10:39:05;18.10;1.00
14473;DHT22;7322;50.872;4.386;2022-10-22T10:41:43;18.10;1.00
14473;DHT22;7322;50.872;4.386;2022-10-22T10:47:24;18.30;99.90
14473;DHT22;7322;50.872;4.386;2022-10-22T10:50:04;18.30;99.90
14473;DHT22;7322;50.872;4.386;2022-10-22T10:52:45;18.50;99.90
14473;DHT22;7322;50.872;4.386;2022-10-22T10:55:24;18.60;99.90
14473;DHT22;7322;50.872;4.386;2022-10-22T10:58:02;18.60;99.90
14473;DHT22;7322;50.872;4.386;2022-10-22T11:00:37;18.40;99.90
14473;DHT22;7322;50.872;4.386;2022-10-22T11:06:11;18.50;99.90
14473;DHT22;7322;50.872;4.386;2022-10-22T11:08:44;18.40;99.90
14473;DHT22;7322;50.872;4.386;2022-10-22T11:11:18;18.40;99.90
14473;DHT22;7322;50.872;4.386;2022-10-22T11:13:50;18.50;99.90
14473;DHT22;7322;50.872;4.386;2022-10-22T11:16:23;18.40;99.90
14473;DHT22;7322;50.872;4.386;2022-10-22T11:18:57;18.40;99.90
14473;DHT22;7322;50.872;4.386;2022-10-22T11:21:31;18.60;99.90
14473;DHT22;7322;50.872;4.386;2022-10-22T11:24:03;18.60;99.90
14473;DHT22;7322;50.872;4.386;2022-10-22T11:26:40;18.70;99.90
14473;DHT22;7322;50.872;4.386;2022-10-22T11:29:12;18.60;99.90
14473;DHT22;7322;50.872;4.386;2022-10-22T11:31:41;18.70;99.90
14473;DHT22;7322;50.872;4.386;2022-10-22T11:34:16;18.80;99.90
14473;DHT22;7322;50.872;4.386;2022-10-22T11:36:45;18.80;99.90
14473;DHT22;7322;50.872;4.386;2022-10-22T11:39:37;18.80;99.90
14473;DHT22;7322;50.872;4.386;2022-10-22T11:42:09;18.90;99.90
14473;DHT22;7322;50.872;4.386;2022-10-22T11:44:47;19.10;99.90
14473;DHT22;7322;50.872;4.386;2022-10-22T11:47:18;19.30;99.90
14473;DHT22;7322;50.872;4.386;2022-10-22T11:49:56;19.50;99.90
14473;DHT22;7322;50.872;4.386;2022-10-22T11:52:26;19.70;57.50
14473;DHT22;7322;50.872;4.386;2022-10-22T11:54:55;19.60;1.00
14473;DHT22;7322;50.872;4.386;2022-10-22T11:57:27;19.60;1.00
14473;DHT22;7322;50.872;4.386;2022-10-22T11:59:58;19.60;1.00
14473;DHT22;7322;50.872;4.386;2022-10-22T12:02:47;19.60;1.00
14473;DHT22;7322;50.872;4.386;2022-10-22T12:05:37;19.50;1.00
14473;DHT22;7322;50.872;4.386;2022-10-22T12:08:28;19.50;1.00
14473;DHT22;7322;50.872;4.386;2022-10-22T12:11:01;19.30;1.00
14473;DHT22;7322;50.872;4.386;2022-10-22T12:13:31;19.30;1.00
14473;DHT22;7322;50.872;4.386;2022-10-22T12:16:02;19.30;1.00
14473;DHT22;7322;50.872;4.386;2022-10-22T12:18:35;19.70;1.00
14473;DHT22;7322;50.872;4.386;2022-10-22T12:21:10;19.80;1.00
14473;DHT22;7322;50.872;4.386;2022-10-22T12:23:37;20.20;1.00
14473;DHT22;7322;50.872;4.386;2022-10-22T12:26:04;20.60;1.00
14473;DHT22;7322;50.872;4.386;2022-10-22T12:28:37;20.90;1.00
14473;DHT22;7322;50.872;4.386;2022-10-22T12:31:12;21.20;1.00
14473;DHT22;7322;50.872;4.386;2022-10-22T12:33:41;21.30;1.00
14473;DHT22;7322;50.872;4.386;2022-10-22T12:36:15;21.40;1.00
14473;DHT22;7322;50.872;4.386;2022-10-22T12:38:45;21.60;1.00
14473;DHT22;7322;50.872;4.386;2022-10-22T12:41:13;21.40;1.00
14473;DHT22;7322;50.872;4.386;2022-10-22T12:43:40;21.40;1.00
14473;DHT22;7322;50.872;4.386;2022-10-22T12:46:10;21.50;1.00
14473;DHT22;7322;50.872;4.386;2022-10-22T12:48:41;21.60;1.00
14473;DHT22;7322;50.872;4.386;2022-10-22T12:51:15;21.50;1.00
14473;DHT22;7322;50.872;4.386;2022-10-22T12:53:46;21.40;1.00
14473;DHT22;7322;50.872;4.386;2022-10-22T12:56:16;21.40;1.00
14473;DHT22;7322;50.872;4.386;2022-10-22T12:58:48;21.60;1.00
14473;DHT22;7322;50.872;4.386;2022-10-22T13:01:17;21.80;1.00
14473;DHT22;7322;50.872;4.386;2022-10-22T13:03:46;21.80;1.00
14473;DHT22;7322;50.872;4.386;2022-10-22T13:06:23;21.80;1.00
14473;DHT22;7322;50.872;4.386;2022-10-22T13:09:10;21.70;1.00
14473;DHT22;7322;50.872;4.386;2022-10-22T13:11:40;21.50;1.00
14473;DHT22;7322;50.872;4.386;2022-10-22T13:14:18;21.20;1.00
14473;DHT22;7322;50.872;4.386;2022-10-22T13:17:05;21.30;1.00
14473;DHT22;7322;50.872;4.386;2022-10-22T13:19:36;21.50;1.00
14473;DHT22;7322;50.872;4.386;2022-10-22T13:24:48;21.60;1.00
14473;DHT22;7322;50.872;4.386;2022-10-22T13:27:15;21.50;1.00
14473;DHT22;7322;50.872;4.386;2022-10-22T13:29:43;21.30;1.00
14473;DHT22;7322;50.872;4.386;2022-10-22T13:32:23;21.20;1.00
14473;DHT22;7322;50.872;4.386;2022-10-22T13:34:52;21.00;1.00
14473;DHT22;7322;50.872;4.386;2022-10-22T13:37:20;21.10;1.00
14473;DHT22;7322;50.872;4.386;2022-10-22T13:39:47;21.30;1.00
14473;DHT22;7322;50.872;4.386;2022-10-22T13:42:14;21.20;1.00
14473;DHT22;7322;50.872;4.386;2022-10-22T13:44:41;21.40;1.00
14473;DHT22;7322;50.872;4.386;2022-10-22T13:47:22;21.50;1.00
14473;DHT22;7322;50.872;4.386;2022-10-22T13:49:49;21.40;1.00
14473;DHT22;7322;50.872;4.386;2022-10-22T13:52:26;21.30;1.00
14473;DHT22;7322;50.872;4.386;2022-10-22T13:54:53;21.10;1.00
14473;DHT22;7322;50.872;4.386;2022-10-22T13:57:20;20.90;1.00
14473;DHT22;7322;50.872;4.386;2022-10-22T13:59:47;20.80;1.00
14473;DHT22;7322;50.872;4.386;2022-10-22T14:02:14;20.80;1.00
14473;DHT22;7322;50.872;4.386;2022-10-22T14:04:42;21.20;1.00
14473;DHT22;7322;50.872;4.386;2022-10-22T14:07:12;21.40;1.00
14473;DHT22;7322;50.872;4.386;2022-10-22T14:09:41;21.50;1.00
14473;DHT22;7322;50.872;4.386;2022-10-22T14:12:12;21.50;1.00
14473;DHT22;7322;50.872;4.386;2022-10-22T14:14:40;21.70;1.00
14473;DHT22;7322;50.872;4.386;2022-10-22T14:17:11;21.70;1.00
14473;DHT22;7322;50.872;4.386;2022-10-22T14:19:40;21.60;1.00
14473;DHT22;7322;50.872;4.386;2022-10-22T14:22:12;21.30;1.00
14473;DHT22;7322;50.872;4.386;2022-10-22T14:24:40;21.10;1.00
14473;DHT22;7322;50.872;4.386;2022-10-22T14:27:10;20.90;1.00
14473;DHT22;7322;50.872;4.386;2022-10-22T14:29:37;20.70;1.00
14473;DHT22;7322;50.872;4.386;2022-10-22T14:32:09;20.90;1.00
14473;DHT22;7322;50.872;4.386;2022-10-22T14:34:36;21.00;1.00
14473;DHT22;7322;50.872;4.386;2022-10-22T14:37:03;20.90;1.00
14473;DHT22;7322;50.872;4.386;2022-10-22T14:39:30;20.70;1.00
14473;DHT22;7322;50.872;4.386;2022-10-22T14:41:58;20.70;1.00
14473;DHT22;7322;50.872;4.386;2022-10-22T14:44:25;20.70;1.00
14473;DHT22;7322;50.872;4.386;2022-10-22T14:46:52;20.70;1.00
14473;DHT22;7322;50.872;4.386;2022-10-22T14:49:20;20.70;1.00
14473;DHT22;7322;50.872;4.386;2022-10-22T14:51:47;20.70;1.00
14473;DHT22;7322;50.872;4.386;2022-10-22T14:54:14;20.70;1.00
14473;DHT22;7322;50.872;4.386;2022-10-22T14:56:43;20.60;1.00
14473;DHT22;7322;50.872;4.386;2022-10-22T14:59:11;20.50;1.00
14473;DHT22;7322;50.872;4.386;2022-10-22T15:01:38;20.60;1.00
14473;DHT22;7322;50.872;4.386;2022-10-22T15:04:06;20.40;1.00
14473;DHT22;7322;50.872;4.386;2022-10-22T15:06:34;20.50;1.00
14473;DHT22;7322;50.872;4.386;2022-10-22T15:09:01;20.50;1.00
14473;DHT22;7322;50.872;4.386;2022-10-22T15:11:28;20.50;1.00
14473;DHT22;7322;50.872;4.386;2022-10-22T15:13:54;20.40;1.00
14473;DHT22;7322;50.872;4.386;2022-10-22T15:16:23;20.20;1.00
14473;DHT22;7322;50.872;4.386;2022-10-22T15:18:50;20.10;1.00
14473;DHT22;7322;50.872;4.386;2022-10-22T15:21:19;20.10;1.00
14473;DHT22;7322;50.872;4.386;2022-10-22T15:23:47;20.20;1.00
14473;DHT22;7322;50.872;4.386;2022-10-22T15:26:14;20.20;1.00
14473;DHT22;7322;50.872;4.386;2022-10-22T15:28:42;20.10;1.00
14473;DHT22;7322;50.872;4.386;2022-10-22T15:31:11;20.20;1.00
14473;DHT22;7322;50.872;4.386;2022-10-22T15:33:40;20.20;1.00
14473;DHT22;7322;50.872;4.386;2022-10-22T15:36:09;20.10;1.00
14473;DHT22;7322;50.872;4.386;2022-10-22T15:38:37;20.10;1.00
14473;DHT22;7322;50.872;4.386;2022-10-22T15:41:05;20.10;1.00
14473;DHT22;7322;50.872;4.386;2022-10-22T15:43:32;20.00;1.00
14473;DHT22;7322;50.872;4.386;2022-10-22T15:46:09;20.00;1.00
14473;DHT22;7322;50.872;4.386;2022-10-22T15:48:36;20.10;1.00
14473;DHT22;7322;50.872;4.386;2022-10-22T15:51:09;20.00;1.00
14473;DHT22;7322;50.872;4.386;2022-10-22T15:53:37;20.10;1.00
14473;DHT22;7322;50.872;4.386;2022-10-22T15:56:05;20.10;1.00
14473;DHT22;7322;50.872;4.386;2022-10-22T15:58:32;20.10;1.00
14473;DHT22;7322;50.872;4.386;2022-10-22T16:01:06;19.90;1.00
14473;DHT22;7322;50.872;4.386;2022-10-22T16:03:33;19.90;1.00
14473;DHT22;7322;50.872;4.386;2022-10-22T16:06:01;19.90;1.00
14473;DHT22;7322;50.872;4.386;2022-10-22T16:08:29;19.90;1.00
14473;DHT22;7322;50.872;4.386;2022-10-22T16:10:56;19.90;1.00
14473;DHT22;7322;50.872;4.386;2022-10-22T16:13:23;19.80;1.00
14473;DHT22;7322;50.872;4.386;2022-10-22T16:15:51;19.70;1.00
14473;DHT22;7322;50.872;4.386;2022-10-22T16:18:19;19.70;27.80
14473;DHT22;7322;50.872;4.386;2022-10-22T16:20:46;19.60;54.30
14473;DHT22;7322;50.872;4.386;2022-10-22T16:23:13;19.70;56.20
14473;DHT22;7322;50.872;4.386;2022-10-22T16:25:44;19.60;66.20
14473;DHT22;7322;50.872;4.386;2022-10-22T16:28:13;19.60;82.50
14473;DHT22;7322;50.872;4.386;2022-10-22T16:30:40;19.50;92.60
14473;DHT22;7322;50.872;4.386;2022-10-22T16:33:09;19.50;99.90
14473;DHT22;7322;50.872;4.386;2022-10-22T16:35:39;19.50;99.90
14473;DHT22;7322;50.872;4.386;2022-10-22T16:38:07;19.50;99.90
14473;DHT22;7322;50.872;4.386;2022-10-22T16:40:34;19.40;99.90
14473;DHT22;7322;50.872;4.386;2022-10-22T16:43:03;19.30;99.90
14473;DHT22;7322;50.872;4.386;2022-10-22T16:45:30;19.30;99.90
14473;DHT22;7322;50.872;4.386;2022-10-22T16:47:57;19.30;99.90
14473;DHT22;7322;50.872;4.386;2022-10-22T16:50:24;19.20;99.90
14473;DHT22;7322;50.872;4.386;2022-10-22T16:52:51;19.20;99.90